createdAt,value
2017-12-01T00:00:58.198Z,21.87
2017-12-01T00:03:25.653Z,19.93
2017-12-01T00:05:53.185Z,20.53
2017-12-01T00:08:20.660Z,21.10
2017-12-01T00:10:48.139Z,23.00
2017-12-01T00:13:16.362Z,22.10
2017-12-01T00:15:43.843Z,24.70
2017-12-01T00:18:12.237Z,21.77
2017-12-01T00:20:39.735Z,21.63
2017-12-01T00:23:07.209Z,22.37
2017-12-01T00:25:34.698Z,22.10
2017-12-01T00:28:02.154Z,21.00
2017-12-01T00:30:29.638Z,22.30
2017-12-01T00:32:57.171Z,22.67
2017-12-01T00:35:24.616Z,21.27
2017-12-01T00:37:52.089Z,22.07
2017-12-01T00:40:19.566Z,21.40
2017-12-01T00:42:47.043Z,23.00
2017-12-01T00:45:14.523Z,22.60
2017-12-01T00:47:42.792Z,20.40
2017-12-01T00:50:10.249Z,21.07
2017-12-01T00:52:37.717Z,21.80
2017-12-01T00:55:05.193Z,21.43
2017-12-01T00:57:32.645Z,21.47
2017-12-01T01:00:00.158Z,21.30
2017-12-01T01:02:27.610Z,21.63
2017-12-01T01:04:55.118Z,22.07
2017-12-01T01:07:22.604Z,22.50
2017-12-01T01:09:50.060Z,22.63
2017-12-01T01:12:17.548Z,23.20
2017-12-01T01:14:45.189Z,23.07
2017-12-01T01:17:13.980Z,21.08
2017-12-01T01:19:41.449Z,22.40
2017-12-01T01:22:09.021Z,21.20
2017-12-01T01:24:36.478Z,22.63
2017-12-01T01:27:03.960Z,23.10
2017-12-01T01:29:31.437Z,19.47
2017-12-01T01:31:58.968Z,22.17
2017-12-01T01:34:27.213Z,22.20
2017-12-01T01:36:54.674Z,21.45
2017-12-01T01:39:22.162Z,21.80
2017-12-01T01:41:50.393Z,21.67
2017-12-01T01:44:17.876Z,20.23
2017-12-01T01:46:45.450Z,20.73
2017-12-01T01:49:13.863Z,20.50
2017-12-01T01:51:41.330Z,20.17
2017-12-01T01:54:08.839Z,20.20
2017-12-01T01:56:36.304Z,20.80
2017-12-01T01:59:03.852Z,22.07
2017-12-01T02:01:31.337Z,19.50
2017-12-01T02:03:59.556Z,21.83
2017-12-01T02:06:27.046Z,19.40
2017-12-01T02:08:54.526Z,18.90
2017-12-01T02:11:22.763Z,18.60
2017-12-01T02:13:50.253Z,18.50
2017-12-01T02:16:18.509Z,17.07
2017-12-01T02:18:46.009Z,17.50
2017-12-01T02:21:14.414Z,17.30
2017-12-01T02:23:41.890Z,17.30
2017-12-01T02:26:09.441Z,17.73
2017-12-01T02:28:36.914Z,18.10
2017-12-01T02:31:04.379Z,17.30
2017-12-01T02:33:31.974Z,17.70
2017-12-01T02:36:00.219Z,18.93
2017-12-01T02:38:27.692Z,17.23
2017-12-01T02:40:55.951Z,17.10
2017-12-01T02:43:24.229Z,18.27
2017-12-01T02:45:51.721Z,16.30
2017-12-01T02:48:19.948Z,16.10
2017-12-01T02:50:47.427Z,15.50
2017-12-01T02:53:14.927Z,16.47
2017-12-01T02:55:42.412Z,15.23
2017-12-01T02:58:09.870Z,16.97
2017-12-01T03:00:37.325Z,16.03
2017-12-01T03:03:04.807Z,16.10
2017-12-01T03:05:32.277Z,14.57
2017-12-01T03:07:59.840Z,16.27
2017-12-01T03:10:27.304Z,16.67
2017-12-01T03:12:54.772Z,16.23
2017-12-01T03:15:23.026Z,16.60
2017-12-01T03:17:50.494Z,16.20
2017-12-01T03:20:18.021Z,18.57
2017-12-01T03:22:45.502Z,15.93
2017-12-01T03:25:12.981Z,17.73
2017-12-01T03:27:41.230Z,16.27
2017-12-01T03:30:08.706Z,15.70
2017-12-01T03:32:36.154Z,15.40
2017-12-01T03:35:03.645Z,16.10
2017-12-01T03:37:31.096Z,17.00
2017-12-01T03:39:58.664Z,16.27
2017-12-01T03:42:26.248Z,14.90
2017-12-01T03:44:53.713Z,17.37
2017-12-01T03:47:21.249Z,18.87
2017-12-01T03:49:48.701Z,14.70
2017-12-01T03:52:16.948Z,16.37
2017-12-01T03:54:44.815Z,15.57
2017-12-01T03:57:12.545Z,16.07
2017-12-01T03:59:40.433Z,19.90
2017-12-01T04:02:08.469Z,16.90
2017-12-01T04:04:36.380Z,20.77
2017-12-01T04:07:04.169Z,21.87
2017-12-01T04:09:32.705Z,20.00
2017-12-01T04:12:00.515Z,21.70
2017-12-01T04:14:28.313Z,18.40
2017-12-01T04:16:56.150Z,18.57
2017-12-01T04:19:24.085Z,19.80
2017-12-01T04:21:51.907Z,16.67
2017-12-01T04:24:20.481Z,17.27
2017-12-01T04:26:48.977Z,16.60
2017-12-01T04:29:16.975Z,18.00
2017-12-01T04:31:44.518Z,19.67
2017-12-01T04:34:12.024Z,18.07
2017-12-01T04:36:39.863Z,18.50
2017-12-01T04:39:07.667Z,19.67
2017-12-01T04:41:35.419Z,18.17
2017-12-01T04:44:03.343Z,18.80
2017-12-01T04:46:31.127Z,20.27
2017-12-01T04:48:58.985Z,18.50
2017-12-01T04:51:26.901Z,18.90
2017-12-01T04:53:54.792Z,20.20
2017-12-01T04:56:22.650Z,17.83
2017-12-01T04:58:50.353Z,18.70
2017-12-01T05:01:18.063Z,18.13
2017-12-01T05:03:45.802Z,19.37
2017-12-01T05:06:14.126Z,20.00
2017-12-01T05:08:41.784Z,21.17
2017-12-01T05:11:09.429Z,20.40
2017-12-01T05:13:37.200Z,19.30
2017-12-01T05:16:05.190Z,19.03
2017-12-01T05:18:33.796Z,19.60
2017-12-01T05:21:01.512Z,18.63
2017-12-01T05:23:29.233Z,18.87
2017-12-01T05:25:57.074Z,19.70
2017-12-01T05:28:24.807Z,20.02
2017-12-01T05:30:52.583Z,19.10
2017-12-01T05:33:20.262Z,18.80
2017-12-01T05:35:48.896Z,19.37
2017-12-01T05:38:16.719Z,17.93
2017-12-01T05:40:44.680Z,20.60
2017-12-01T05:43:13.102Z,19.07
2017-12-01T05:45:40.896Z,19.43
2017-12-01T05:48:08.781Z,19.80
2017-12-01T05:50:36.557Z,19.47
2017-12-01T05:53:05.219Z,20.33
2017-12-01T05:55:33.145Z,20.53
2017-12-01T05:58:00.920Z,21.30
2017-12-01T06:00:28.704Z,19.90
2017-12-01T06:02:56.199Z,21.10
2017-12-01T06:05:23.669Z,20.40
2017-12-01T06:07:51.166Z,20.90
2017-12-01T06:10:18.645Z,21.47
2017-12-01T06:12:46.134Z,19.60
2017-12-01T06:15:14.449Z,21.77
2017-12-01T06:17:41.935Z,23.17
2017-12-01T06:20:09.417Z,21.20
2017-12-01T06:22:36.885Z,23.73
2017-12-01T06:25:05.178Z,24.90
2017-12-01T06:27:33.401Z,24.77
2017-12-01T06:30:00.884Z,24.57
2017-12-01T06:32:28.371Z,23.60
2017-12-01T06:34:55.841Z,22.93
2017-12-01T06:37:23.363Z,25.00
2017-12-01T06:39:50.834Z,25.63
2017-12-01T06:42:20.341Z,23.45
2017-12-01T06:44:47.844Z,23.90
2017-12-01T06:47:15.324Z,24.47
2017-12-01T06:49:43.562Z,22.53
2017-12-01T06:52:11.069Z,26.20
2017-12-01T06:54:38.604Z,23.73
2017-12-01T06:57:06.102Z,26.27
2017-12-01T06:59:33.660Z,24.57
2017-12-01T07:02:02.137Z,27.40
2017-12-01T07:04:29.963Z,27.23
2017-12-01T07:06:57.501Z,23.97
2017-12-01T07:09:25.002Z,26.80
2017-12-01T07:11:52.569Z,26.13
2017-12-01T07:14:20.037Z,21.23
2017-12-01T07:16:47.508Z,30.50
2017-12-01T07:19:15.045Z,27.83
2017-12-01T07:21:42.553Z,17.00
2017-12-01T07:24:10.010Z,28.17
2017-12-01T07:26:49.206Z,26.30
2017-12-01T07:29:16.673Z,26.70
2017-12-01T07:31:44.165Z,25.50
2017-12-01T07:34:11.628Z,29.37
2017-12-01T07:36:39.122Z,27.47
2017-12-01T07:39:06.578Z,28.93
2017-12-01T07:41:34.045Z,28.13
2017-12-01T07:44:06.239Z,27.57
2017-12-01T07:46:33.698Z,28.37
2017-12-01T07:49:01.933Z,27.87
2017-12-01T07:51:29.508Z,25.40
2017-12-01T07:53:56.976Z,26.60
2017-12-01T07:56:24.458Z,27.80
2017-12-01T07:58:52.714Z,25.80
2017-12-01T08:01:20.719Z,26.92
2017-12-01T08:03:48.176Z,27.87
2017-12-01T08:06:15.679Z,23.80
2017-12-01T08:08:43.146Z,25.87
2017-12-01T08:11:10.630Z,25.77
2017-12-01T08:13:38.871Z,25.80
2017-12-01T08:16:18.038Z,27.93
2017-12-01T08:19:04.003Z,28.57
2017-12-01T08:21:44.211Z,28.03
2017-12-01T08:27:19.153Z,28.73
2017-12-01T08:29:46.617Z,25.63
2017-12-01T08:32:14.866Z,28.37
2017-12-01T08:34:42.329Z,28.77
2017-12-01T08:37:09.809Z,28.40
2017-12-01T08:39:38.046Z,24.87
2017-12-01T08:42:05.510Z,26.90
2017-12-01T08:44:32.994Z,12.87
2017-12-01T08:47:01.232Z,24.90
2017-12-01T08:49:28.726Z,30.23
2017-12-01T08:51:56.973Z,29.27
2017-12-01T08:54:24.529Z,26.43
2017-12-01T08:56:52.037Z,22.93
2017-12-01T08:59:20.284Z,24.93
2017-12-01T09:01:47.776Z,25.13
2017-12-01T09:04:15.319Z,24.77
2017-12-01T09:06:43.558Z,25.27
2017-12-01T09:09:11.817Z,21.47
2017-12-01T09:11:39.275Z,16.10
2017-12-01T09:14:06.798Z,24.23
2017-12-01T09:16:35.022Z,23.90
2017-12-01T09:19:02.509Z,18.20
2017-12-01T09:21:29.973Z,22.57
2017-12-01T09:23:57.461Z,22.67
2017-12-01T09:26:25.124Z,21.70
2017-12-01T09:28:52.493Z,20.63
2017-12-01T09:31:19.994Z,20.20
2017-12-01T09:33:47.535Z,22.57
2017-12-01T09:36:15.290Z,21.20
2017-12-01T09:38:42.761Z,22.10
2017-12-01T09:41:10.314Z,20.33
2017-12-01T09:43:37.815Z,22.43
2017-12-01T09:46:05.290Z,21.20
2017-12-01T09:48:32.817Z,22.07
2017-12-01T09:51:00.295Z,22.58
2017-12-01T09:53:28.580Z,22.10
2017-12-01T09:55:56.860Z,22.33
2017-12-01T09:58:25.105Z,22.20
2017-12-01T10:00:53.753Z,22.90
2017-12-01T10:03:21.210Z,22.00
2017-12-01T10:05:48.724Z,23.00
2017-12-01T10:08:16.217Z,21.07
2017-12-01T10:10:43.697Z,22.47
2017-12-01T10:13:11.986Z,24.30
2017-12-01T10:15:39.486Z,23.77
2017-12-01T10:18:07.005Z,22.37
2017-12-01T10:20:34.474Z,25.67
2017-12-01T10:23:01.930Z,22.07
2017-12-01T10:25:29.505Z,21.80
2017-12-01T10:27:56.989Z,23.70
2017-12-01T10:30:24.458Z,24.23
2017-12-01T10:32:51.931Z,24.87
2017-12-01T10:35:19.412Z,23.87
2017-12-01T10:37:46.887Z,23.57
2017-12-01T10:40:14.362Z,22.47
2017-12-01T10:42:41.853Z,24.20
2017-12-01T10:45:09.334Z,23.30
2017-12-01T10:47:36.820Z,21.17
2017-12-01T10:50:04.282Z,23.03
2017-12-01T10:52:31.756Z,21.37
2017-12-01T10:55:00.199Z,23.80
2017-12-01T10:57:27.963Z,15.07
2017-12-01T10:59:56.274Z,21.53
2017-12-01T11:02:24.230Z,23.65
2017-12-01T11:04:51.718Z,20.37
2017-12-01T11:07:19.194Z,20.10
2017-12-01T11:09:46.684Z,22.10
2017-12-01T11:12:14.166Z,24.37
2017-12-01T11:14:41.642Z,23.67
2017-12-01T11:17:11.070Z,22.40
2017-12-01T11:19:39.318Z,19.47
2017-12-01T11:22:07.055Z,19.50
2017-12-01T11:24:34.718Z,21.10
2017-12-01T11:27:02.234Z,24.07
2017-12-01T11:29:29.681Z,23.23
2017-12-01T11:31:57.153Z,23.17
2017-12-01T11:34:26.369Z,19.95
2017-12-01T11:36:54.776Z,19.53
2017-12-01T11:39:22.251Z,19.07
2017-12-01T11:41:49.733Z,21.17
2017-12-01T11:44:17.967Z,17.80
2017-12-01T11:46:45.470Z,18.50
2017-12-01T11:49:13.789Z,20.00
2017-12-01T11:51:41.269Z,20.57
2017-12-01T11:54:08.720Z,20.40
2017-12-01T11:56:36.227Z,19.13
2017-12-01T11:59:03.677Z,19.87
2017-12-01T12:01:31.918Z,20.70
2017-12-01T12:03:59.448Z,19.03
2017-12-01T12:06:26.931Z,17.50
2017-12-01T12:08:55.309Z,18.00
2017-12-01T12:11:22.782Z,17.93
2017-12-01T12:13:50.364Z,17.80
2017-12-01T12:16:18.658Z,19.20
2017-12-01T12:18:46.115Z,18.37
2017-12-01T12:21:14.358Z,19.20
2017-12-01T12:23:41.837Z,16.67
2017-12-01T12:26:10.087Z,18.13
2017-12-01T12:28:38.222Z,14.87
2017-12-01T12:31:05.702Z,15.47
2017-12-01T12:33:33.173Z,16.03
2017-12-01T12:36:00.789Z,14.90
2017-12-01T12:38:28.261Z,16.60
2017-12-01T12:40:56.899Z,14.35
2017-12-01T12:43:24.359Z,15.87
2017-12-01T12:45:51.825Z,12.17
2017-12-01T12:48:20.071Z,16.93
2017-12-01T12:50:47.574Z,15.67
2017-12-01T12:53:15.091Z,16.10
2017-12-01T12:55:42.586Z,15.43
2017-12-01T12:58:10.109Z,17.30
2017-12-01T13:00:37.600Z,13.80
2017-12-01T13:03:05.909Z,14.50
2017-12-01T13:05:33.382Z,15.00
2017-12-01T13:08:00.873Z,15.53
2017-12-01T13:10:28.321Z,15.30
2017-12-01T13:12:57.461Z,14.70
2017-12-01T13:15:25.030Z,14.93
2017-12-01T13:17:52.505Z,16.87
2017-12-01T13:20:19.990Z,14.23
2017-12-01T13:22:47.473Z,16.80
2017-12-01T13:25:14.949Z,15.80
2017-12-01T13:27:42.425Z,16.83
2017-12-01T13:30:09.899Z,15.23
2017-12-01T13:32:37.390Z,15.40
2017-12-01T13:35:05.637Z,16.37
2017-12-01T13:37:33.152Z,16.23
2017-12-01T13:40:01.377Z,14.70
2017-12-01T13:42:28.849Z,15.77
2017-12-01T13:44:57.253Z,15.60
2017-12-01T13:47:24.747Z,16.20
2017-12-01T13:49:52.230Z,15.43
2017-12-01T13:52:20.272Z,15.87
2017-12-01T13:54:48.508Z,17.43
2017-12-01T13:57:15.998Z,17.60
2017-12-01T13:59:44.220Z,18.77
2017-12-01T14:02:11.673Z,18.30
2017-12-01T14:04:39.162Z,18.90
2017-12-01T14:07:06.689Z,17.70
2017-12-01T14:09:34.142Z,19.03
2017-12-01T14:12:01.622Z,18.20
2017-12-01T14:14:29.102Z,13.07
2017-12-01T14:16:56.590Z,17.00
2017-12-01T14:19:24.053Z,17.10
2017-12-01T14:21:51.551Z,15.47
2017-12-01T14:24:19.105Z,19.00
2017-12-01T14:26:46.589Z,18.00
2017-12-01T14:29:14.045Z,18.43
2017-12-01T14:31:41.522Z,18.80
2017-12-01T14:34:09.754Z,17.50
2017-12-01T14:36:37.242Z,19.43
2017-12-01T14:39:04.737Z,19.50
2017-12-01T14:41:32.202Z,19.13
2017-12-01T14:43:59.658Z,21.23
2017-12-01T14:46:27.241Z,20.20
2017-12-01T14:48:54.752Z,20.40
2017-12-01T14:51:22.230Z,18.93
2017-12-01T14:53:49.720Z,18.70
2017-12-01T14:56:17.217Z,19.57
2017-12-01T14:58:44.803Z,18.50
2017-12-01T15:01:12.280Z,21.83
2017-12-01T15:03:39.793Z,22.33
2017-12-01T15:06:07.269Z,21.40
2017-12-01T15:08:35.517Z,21.93
2017-12-01T15:11:03.013Z,20.97
2017-12-01T15:13:31.257Z,20.73
2017-12-01T15:15:59.945Z,20.23
2017-12-01T15:18:27.431Z,19.70
2017-12-01T15:20:55.850Z,19.77
2017-12-01T15:23:23.305Z,18.57
2017-12-01T15:25:50.791Z,18.90
2017-12-01T15:28:19.050Z,22.03
2017-12-01T15:30:46.552Z,21.03
2017-12-01T15:33:14.797Z,20.70
2017-12-01T15:35:42.322Z,18.87
2017-12-01T15:38:09.794Z,20.73
2017-12-01T15:40:37.309Z,21.67
2017-12-01T15:43:04.769Z,19.53
2017-12-01T15:45:32.230Z,20.53
2017-12-01T15:47:59.718Z,19.40
2017-12-01T15:50:27.209Z,17.37
2017-12-01T15:52:55.437Z,19.10
2017-12-01T15:55:22.932Z,21.20
2017-12-01T15:57:50.388Z,22.57
2017-12-01T16:00:18.040Z,24.20
2017-12-01T16:02:45.526Z,20.93
2017-12-01T16:05:13.038Z,20.17
2017-12-01T16:07:40.517Z,19.60
2017-12-01T16:10:08.227Z,18.77
2017-12-01T16:12:35.713Z,19.30
2017-12-01T16:15:03.959Z,17.23
2017-12-01T16:17:31.445Z,18.10
2017-12-01T16:19:58.893Z,18.77
2017-12-01T16:22:27.141Z,20.57
2017-12-01T16:24:54.601Z,20.13
2017-12-01T16:27:22.088Z,24.10
2017-12-01T16:29:49.541Z,22.50
2017-12-01T16:32:17.757Z,22.00
2017-12-01T16:34:45.238Z,21.20
2017-12-01T16:37:12.705Z,21.67
2017-12-01T16:39:40.183Z,23.03
2017-12-01T16:42:07.673Z,22.07
2017-12-01T16:44:35.165Z,19.00
2017-12-01T16:47:02.642Z,21.03
2017-12-01T16:49:31.801Z,19.70
2017-12-01T16:51:59.294Z,19.73
2017-12-01T16:54:26.758Z,19.60
2017-12-01T16:56:54.237Z,19.30
2017-12-01T16:59:21.713Z,19.90
2017-12-01T17:01:49.169Z,21.47
2017-12-01T17:04:16.625Z,22.80
2017-12-01T17:06:44.113Z,25.23
2017-12-01T17:09:11.577Z,22.93
2017-12-01T17:11:39.034Z,21.57
2017-12-01T17:14:06.522Z,23.40
2017-12-01T17:16:33.997Z,20.93
2017-12-01T17:19:01.453Z,20.80
2017-12-01T17:21:28.930Z,20.43
2017-12-01T17:23:57.180Z,21.27
2017-12-01T17:26:25.528Z,19.30
2017-12-01T17:28:53.028Z,19.77
2017-12-01T17:31:20.484Z,21.90
2017-12-01T17:33:47.976Z,20.80
2017-12-01T17:36:15.561Z,18.80
2017-12-01T17:38:43.042Z,20.17
2017-12-01T17:41:10.504Z,22.10
2017-12-01T17:43:37.999Z,30.57
2017-12-01T17:46:06.269Z,26.60
2017-12-01T17:48:34.529Z,91.97
2017-12-01T17:51:02.017Z,48.67
2017-12-01T17:53:29.477Z,25.60
2017-12-01T17:55:56.952Z,22.07
2017-12-01T17:58:24.416Z,22.13
2017-12-01T18:00:51.896Z,21.13
2017-12-01T18:03:19.380Z,28.10
2017-12-01T18:05:46.861Z,26.17
2017-12-01T18:08:14.331Z,31.47
2017-12-01T18:10:41.819Z,24.13
2017-12-01T18:13:09.272Z,23.57
2017-12-01T18:15:36.803Z,26.17
2017-12-01T18:18:04.229Z,26.43
2017-12-01T18:20:33.115Z,23.65
2017-12-01T18:23:01.075Z,27.03
2017-12-01T18:25:28.769Z,23.20
2017-12-01T18:27:56.437Z,23.53
2017-12-01T18:30:24.849Z,22.07
2017-12-01T18:32:52.349Z,22.07
2017-12-01T18:35:20.129Z,22.40
2017-12-01T18:37:47.648Z,25.60
2017-12-01T18:40:15.303Z,25.70
2017-12-01T18:42:42.977Z,24.40
2017-12-01T18:45:10.733Z,24.37
2017-12-01T18:47:38.502Z,23.07
2017-12-01T18:50:06.354Z,22.87
2017-12-01T18:52:33.971Z,25.47
2017-12-01T18:55:01.711Z,25.60
2017-12-01T18:57:29.189Z,24.00
2017-12-01T18:59:56.640Z,26.03
2017-12-01T19:02:24.122Z,24.57
2017-12-01T19:04:52.441Z,24.40
2017-12-01T19:07:19.933Z,24.10
2017-12-01T19:09:47.385Z,26.30
2017-12-01T19:12:15.027Z,24.30
2017-12-01T19:14:42.578Z,24.37
2017-12-01T19:17:10.221Z,23.70
2017-12-01T19:19:37.701Z,23.80
2017-12-01T19:22:05.336Z,23.30
2017-12-01T19:24:33.241Z,22.53
2017-12-01T19:27:00.713Z,23.80
2017-12-01T19:29:28.219Z,24.77
2017-12-01T19:31:56.469Z,24.60
2017-12-01T19:34:23.918Z,23.40
2017-12-01T19:36:51.488Z,26.10
2017-12-01T19:39:19.054Z,24.43
2017-12-01T19:41:47.306Z,25.50
2017-12-01T19:44:14.769Z,24.87
2017-12-01T19:46:42.277Z,25.23
2017-12-01T19:49:09.730Z,23.83
2017-12-01T19:51:37.260Z,24.00
2017-12-01T19:54:04.715Z,22.93
2017-12-01T19:56:32.166Z,26.60
2017-12-01T19:58:59.634Z,25.73
2017-12-01T20:01:27.098Z,25.13
2017-12-01T20:03:55.352Z,24.70
2017-12-01T20:06:22.809Z,27.30
2017-12-01T20:08:50.303Z,27.57
2017-12-01T20:11:17.786Z,29.63
2017-12-01T20:13:45.425Z,31.07
2017-12-01T20:16:17.250Z,31.37
2017-12-01T20:18:45.436Z,31.13
2017-12-01T20:21:13.688Z,26.60
2017-12-01T20:23:41.176Z,26.73
2017-12-01T20:26:08.796Z,22.30
2017-12-01T20:28:36.252Z,22.13
2017-12-01T20:31:04.437Z,22.42
2017-12-01T20:33:32.174Z,25.50
2017-12-01T20:36:00.111Z,24.07
2017-12-01T20:38:27.688Z,18.23
2017-12-01T20:40:56.140Z,23.30
2017-12-01T20:43:23.849Z,19.77
2017-12-01T20:45:52.000Z,22.70
2017-12-01T20:48:20.505Z,16.13
2017-12-01T20:50:48.723Z,15.82
2017-12-01T20:53:17.006Z,17.70
2017-12-01T20:55:44.464Z,22.50
2017-12-01T20:58:11.940Z,18.10
2017-12-01T21:00:39.424Z,19.27
2017-12-01T21:03:07.295Z,17.93
2017-12-01T21:05:34.844Z,17.30
2017-12-01T21:08:02.387Z,13.93
2017-12-01T21:10:30.627Z,14.77
2017-12-01T21:12:58.627Z,15.98
2017-12-01T21:15:26.556Z,18.73
2017-12-01T21:17:54.333Z,16.67
2017-12-01T21:20:22.002Z,15.63
2017-12-01T21:22:50.172Z,16.17
2017-12-01T21:25:18.087Z,15.10
2017-12-01T21:27:46.693Z,11.97
2017-12-01T21:30:14.489Z,16.13
2017-12-01T21:32:42.274Z,14.27
2017-12-01T21:35:10.108Z,12.30
2017-12-01T21:37:37.976Z,16.70
2017-12-01T21:40:06.645Z,15.00
2017-12-01T21:42:34.489Z,12.33
2017-12-01T21:45:03.059Z,12.97
2017-12-01T21:47:30.820Z,10.67
2017-12-01T21:49:58.610Z,8.23
2017-12-01T21:52:26.294Z,12.50
2017-12-01T21:54:53.768Z,12.80
2017-12-01T21:57:21.253Z,14.47
2017-12-01T21:59:48.729Z,14.47
2017-12-01T22:02:16.226Z,12.13
2017-12-01T22:04:43.951Z,13.13
2017-12-01T22:07:11.733Z,14.27
2017-12-01T22:09:39.997Z,12.23
2017-12-01T22:12:07.525Z,12.00
2017-12-01T22:14:35.943Z,14.40
2017-12-01T22:17:04.197Z,13.40
2017-12-01T22:19:31.682Z,12.47
2017-12-01T22:21:59.261Z,12.40
2017-12-01T22:24:26.832Z,11.23
2017-12-01T22:26:54.353Z,11.23
2017-12-01T22:29:21.830Z,10.33
2017-12-01T22:31:50.174Z,12.40
2017-12-01T22:34:17.653Z,14.37
2017-12-01T22:36:45.202Z,12.00
2017-12-01T22:39:12.689Z,10.73
2017-12-01T22:41:40.146Z,14.83
2017-12-01T22:44:07.637Z,13.23
2017-12-01T22:46:35.093Z,13.70
2017-12-01T22:49:02.679Z,17.20
2017-12-01T22:51:30.151Z,17.40
2017-12-01T22:53:57.650Z,13.90
2017-12-01T22:56:25.105Z,10.00
2017-12-01T22:58:52.731Z,11.60
2017-12-01T23:01:20.199Z,11.27
2017-12-01T23:03:47.738Z,11.97
2017-12-01T23:06:15.355Z,14.43
2017-12-01T23:08:42.964Z,10.23
2017-12-01T23:11:10.439Z,12.20
2017-12-01T23:13:37.895Z,10.03
2017-12-01T23:16:05.409Z,10.20
2017-12-01T23:18:32.862Z,9.23
2017-12-01T23:21:00.322Z,13.90
2017-12-01T23:23:27.816Z,12.30
2017-12-01T23:25:55.301Z,11.40
2017-12-01T23:28:23.526Z,12.30
2017-12-01T23:30:50.995Z,11.13
2017-12-01T23:33:18.489Z,11.10
2017-12-01T23:35:45.972Z,12.40
2017-12-01T23:38:13.441Z,12.00
2017-12-01T23:40:40.909Z,12.70
2017-12-01T23:43:08.401Z,12.10
2017-12-01T23:45:35.870Z,14.60
2017-12-01T23:48:03.366Z,12.60
2017-12-01T23:50:30.832Z,19.63
2017-12-01T23:52:58.336Z,12.60
2017-12-01T23:55:25.801Z,9.53
2017-12-01T23:57:53.518Z,14.90
